Time;durP1;ratioP1;P1;durP2;ratioP2;P2;SDS_P1;SDS_P2;PMS_P1;PMS_P2;Temp;Humidity;BMP_temperature;BMP_pressure;BME280_temperature;BME280_humidity;BME280_pressure;Samples;Min_cycle;Max_cycle;Signal;HPM_P1;HPM_P2
2024/04/15 00:01:20;;;;;;;8.38;2.20;;;10.70;99.90;;;;;;5404745;26;19996;-77
2024/04/15 00:03:46;;;;;;;6.88;2.20;;;10.80;99.90;;;;;;5412657;26;19995;-78
2024/04/15 00:06:12;;;;;;;6.25;2.33;;;10.90;99.90;;;;;;5387990;26;20004;-77
2024/04/15 00:08:37;;;;;;;8.38;2.60;;;10.90;99.90;;;;;;5407672;26;20460;-79
2024/04/15 00:11:04;;;;;;;5.97;2.50;;;11.00;99.90;;;;;;5409737;26;20004;-78
2024/04/15 00:13:29;;;;;;;4.50;2.80;;;11.00;99.90;;;;;;5378204;26;20039;-77
2024/04/15 00:15:56;;;;;;;4.78;2.47;;;10.90;99.90;;;;;;5410026;26;20010;-76
2024/04/15 00:18:22;;;;;;;5.30;2.47;;;10.80;99.90;;;;;;5409276;26;20383;-76
2024/04/15 00:20:55;;;;;;;6.68;2.40;;;10.70;99.90;;;;;;5399174;26;20019;-76
2024/04/15 00:23:21;;;;;;;5.82;2.35;;;10.80;99.90;;;;;;5410061;26;20098;-76
2024/04/15 00:25:46;;;;;;;7.80;2.42;;;10.70;99.90;;;;;;5412623;26;20372;-76
2024/04/15 00:28:12;;;;;;;7.78;2.60;;;10.70;99.90;;;;;;5412937;26;20000;-77
2024/04/15 00:30:37;;;;;;;6.65;2.50;;;10.70;99.90;;;;;;5413322;26;20510;-76
2024/04/15 00:33:03;;;;;;;7.38;3.05;;;10.90;99.90;;;;;;5408810;26;19996;-76
2024/04/15 00:35:29;;;;;;;6.68;2.75;;;10.90;99.90;;;;;;5412581;26;19999;-74
2024/04/15 00:37:54;;;;;;;6.95;3.00;;;10.80;99.90;;;;;;5412292;26;20035;-76
2024/04/15 00:40:20;;;;;;;8.57;2.85;;;10.80;99.90;;;;;;5413196;26;20005;-76
2024/04/15 00:42:46;;;;;;;9.13;2.90;;;10.80;99.90;;;;;;5412230;26;20011;-78
2024/04/15 00:45:30;;;;;;;5.13;2.42;;;10.90;99.90;;;;;;5412607;26;20010;-78
2024/04/15 00:48:01;;;;;;;5.77;2.47;;;10.70;99.90;;;;;;5408788;26;20077;-77
2024/04/15 00:50:28;;;;;;;4.13;2.58;;;10.30;99.90;;;;;;5411815;26;20789;-77
2024/04/15 00:52:55;;;;;;;4.43;2.92;;;10.30;99.90;;;;;;5428642;26;20004;-78
2024/04/15 00:55:22;;;;;;;6.63;3.47;;;10.00;99.90;;;;;;5442680;26;20412;-78
2024/04/15 00:57:49;;;;;;;3.97;2.65;;;10.10;99.90;;;;;;5435711;26;20000;-77
2024/04/15 01:00:15;;;;;;;5.35;2.83;;;10.10;99.90;;;;;;5442283;26;20079;-77
2024/04/15 01:02:43;;;;;;;8.68;2.90;;;10.10;99.90;;;;;;5437791;26;20003;-77
2024/04/15 01:05:09;;;;;;;3.85;2.63;;;10.10;99.90;;;;;;5415773;26;19996;-77
2024/04/15 01:07:36;;;;;;;3.92;2.65;;;10.20;99.90;;;;;;5394118;26;19995;-78
2024/04/15 01:10:05;;;;;;;5.57;2.92;;;10.00;99.90;;;;;;5411691;26;20041;-78
2024/04/15 01:12:31;;;;;;;9.45;2.90;;;10.10;99.90;;;;;;5411837;26;20000;-77
2024/04/15 01:14:57;;;;;;;6.32;3.08;;;10.20;99.90;;;;;;5411263;26;20027;-77
2024/04/15 01:17:22;;;;;;;9.00;3.20;;;10.10;99.90;;;;;;5410488;26;20058;-77
2024/04/15 01:19:48;;;;;;;5.63;3.22;;;10.10;99.90;;;;;;5410979;26;20003;-76
2024/04/15 01:22:23;;;;;;;6.03;3.20;;;10.10;99.90;;;;;;5396173;26;19995;-77
2024/04/15 01:24:50;;;;;;;5.50;2.47;;;10.00;99.90;;;;;;5411551;26;20007;-78
2024/04/15 01:27:18;;;;;;;6.63;3.00;;;9.70;99.90;;;;;;5411368;26;20003;-77
2024/04/15 01:29:44;;;;;;;7.28;3.25;;;9.70;99.90;;;;;;5379819;26;20019;-77
2024/04/15 01:32:09;;;;;;;7.50;2.95;;;9.60;99.90;;;;;;5379259;26;20081;-77
2024/04/15 01:34:35;;;;;;;3.70;2.97;;;9.60;99.90;;;;;;5410785;26;20507;-78
2024/04/15 01:37:01;;;;;;;10.95;3.95;;;9.50;99.90;;;;;;5393441;26;20015;-78
2024/04/15 01:39:27;;;;;;;5.10;3.20;;;9.60;99.90;;;;;;5411181;26;20089;-78
2024/04/15 01:41:52;;;;;;;8.25;3.38;;;9.50;99.90;;;;;;5411362;26;20008;-77
2024/04/15 01:44:18;;;;;;;7.50;3.45;;;9.60;99.90;;;;;;5410542;26;20076;-78
2024/04/15 01:46:43;;;;;;;6.10;2.97;;;9.60;99.90;;;;;;5410329;26;20028;-78
2024/04/15 01:49:09;;;;;;;7.10;3.65;;;9.60;99.90;;;;;;5410505;26;20043;-77
2024/04/15 01:51:35;;;;;;;6.63;3.00;;;9.70;99.90;;;;;;5401051;26;20331;-78
2024/04/15 01:54:00;;;;;;;6.82;3.45;;;9.80;99.90;;;;;;5369893;26;19995;-77
2024/04/15 01:56:26;;;;;;;5.82;3.40;;;9.80;99.90;;;;;;5401853;26;20072;-77
2024/04/15 01:58:52;;;;;;;6.97;3.42;;;9.80;99.90;;;;;;5377446;26;20043;-77
2024/04/15 02:01:18;;;;;;;3.92;3.38;;;9.90;99.90;;;;;;5407384;26;20064;-77
2024/04/15 02:03:44;;;;;;;4.50;2.85;;;9.70;99.90;;;;;;5410258;26;20011;-78
2024/04/15 02:06:09;;;;;;;5.13;3.10;;;9.60;99.90;;;;;;5388782;26;20015;-77
2024/04/15 02:08:36;;;;;;;8.43;3.42;;;9.50;99.90;;;;;;5396957;26;19996;-77
2024/04/15 02:11:02;;;;;;;5.28;2.80;;;9.50;99.90;;;;;;5392364;26;20008;-78
2024/04/15 02:13:27;;;;;;;6.05;3.25;;;9.50;99.90;;;;;;5404459;26;19995;-77
2024/04/15 02:15:53;;;;;;;7.35;3.90;;;9.50;99.90;;;;;;5410887;26;19995;-78
2024/04/15 02:18:19;;;;;;;7.45;4.43;;;9.70;99.90;;;;;;5409836;26;19999;-76
2024/04/15 02:20:45;;;;;;;9.13;4.35;;;9.80;99.90;;;;;;5379029;26;19995;-77
2024/04/15 02:23:11;;;;;;;9.43;3.60;;;10.00;99.90;;;;;;5410688;26;19992;-78
2024/04/15 02:25:37;;;;;;;8.40;3.60;;;10.00;99.90;;;;;;5395619;26;20409;-79
2024/04/15 02:28:03;;;;;;;5.03;3.67;;;10.10;99.90;;;;;;5410535;26;20700;-78
2024/04/15 02:30:28;;;;;;;10.02;3.70;;;10.10;99.90;;;;;;5410150;26;20000;-78
2024/04/15 02:32:54;;;;;;;8.73;3.40;;;10.10;99.90;;;;;;5399196;26;20003;-79
2024/04/15 02:35:20;;;;;;;10.55;3.80;;;10.10;99.90;;;;;;5374229;26;20001;-77
2024/04/15 02:37:45;;;;;;;10.13;4.40;;;10.10;99.90;;;;;;5380848;26;19996;-77
2024/04/15 02:40:11;;;;;;;7.57;4.15;;;10.10;99.90;;;;;;5403066;26;20320;-76
2024/04/15 02:42:36;;;;;;;5.80;4.00;;;10.20;99.90;;;;;;5385188;26;20007;-78
2024/04/15 02:45:02;;;;;;;6.88;2.88;;;10.30;99.90;;;;;;5409942;26;20007;-79
2024/04/15 02:47:28;;;;;;;5.22;2.25;;;10.40;99.90;;;;;;5408904;26;20007;-77
2024/04/15 02:49:53;;;;;;;7.82;2.78;;;10.50;30.90;;;;;;5399743;26;20000;-78
2024/04/15 02:52:19;;;;;;;3.80;2.20;;;10.50;5.20;;;;;;5375997;26;20453;-77
2024/04/15 02:54:45;;;;;;;9.75;3.00;;;10.60;1.00;;;;;;5445545;26;20366;-78
2024/04/15 02:57:10;;;;;;;6.68;2.25;;;10.60;1.00;;;;;;5436951;26;20151;-75
2024/04/15 02:59:36;;;;;;;4.95;2.72;;;10.60;1.00;;;;;;5437041;26;19999;-77
2024/04/15 03:02:01;;;;;;;2.47;2.20;;;10.60;6.30;;;;;;5445069;26;20013;-76
2024/04/15 03:04:30;;;;;;;8.75;2.38;;;10.50;21.00;;;;;;5445437;26;20049;-77
2024/04/15 03:06:56;;;;;;;6.63;2.22;;;10.50;19.70;;;;;;5442219;26;20312;-77
2024/04/15 03:09:24;;;;;;;6.85;2.30;;;10.50;10.10;;;;;;5445501;26;19995;-76
2024/04/15 03:11:50;;;;;;;4.95;1.90;;;10.40;9.30;;;;;;5420823;26;20010;-76
2024/04/15 03:14:15;;;;;;;3.92;1.95;;;10.60;1.00;;;;;;5449147;26;19999;-76
2024/04/15 03:16:44;;;;;;;6.90;1.77;;;10.50;1.00;;;;;;5448045;26;19995;-77
2024/04/15 03:19:10;;;;;;;8.07;2.42;;;10.60;1.00;;;;;;5448406;26;19995;-76
2024/04/15 03:21:36;;;;;;;4.93;2.08;;;10.60;1.00;;;;;;5449401;26;20043;-77
2024/04/15 03:24:02;;;;;;;8.82;2.35;;;10.60;1.00;;;;;;5439783;26;19992;-77
2024/04/15 03:26:27;;;;;;;3.38;2.03;;;10.60;1.00;;;;;;5433008;26;20008;-78
2024/04/15 03:28:53;;;;;;;6.95;1.70;;;10.50;11.10;;;;;;5448433;26;19994;-78
2024/04/15 03:31:19;;;;;;;8.07;2.28;;;10.50;1.00;;;;;;5448463;26;20017;-78
2024/04/15 03:33:44;;;;;;;5.90;1.88;;;10.50;1.00;;;;;;5434939;26;20008;-79
2024/04/15 03:36:11;;;;;;;4.38;1.50;;;10.60;1.00;;;;;;5449174;26;20014;-77
2024/04/15 03:38:37;;;;;;;8.40;1.80;;;10.60;1.00;;;;;;5417756;26;20002;-79
2024/04/15 03:41:03;;;;;;;5.25;1.85;;;10.60;1.00;;;;;;5442321;26;20073;-79
2024/04/15 03:43:28;;;;;;;7.93;1.80;;;10.60;1.00;;;;;;5431453;26;20003;-79
2024/04/15 03:45:54;;;;;;;6.78;1.75;;;10.60;1.00;;;;;;5449114;26;20002;-79
2024/04/15 03:48:20;;;;;;;5.13;2.03;;;10.50;11.90;;;;;;5448669;26;20468;-79
2024/04/15 03:50:45;;;;;;;3.85;1.63;;;10.50;21.90;;;;;;5434276;26;20247;-79
2024/04/15 03:53:11;;;;;;;5.53;1.67;;;10.50;21.50;;;;;;5435096;26;19991;-77
2024/04/15 03:55:37;;;;;;;3.50;1.70;;;10.50;1.00;;;;;;5430895;26;20010;-78
2024/04/15 03:58:02;;;;;;;10.45;2.05;;;10.60;17.40;;;;;;5426566;26;20078;-78
2024/04/15 04:00:30;;;;;;;6.72;1.98;;;10.50;5.10;;;;;;5427733;26;20014;-78
2024/04/15 04:02:55;;;;;;;6.50;2.53;;;10.50;1.00;;;;;;5415358;26;20007;-78
2024/04/15 04:05:21;;;;;;;6.28;2.30;;;10.50;15.30;;;;;;5410750;26;20069;-77
2024/04/15 04:07:47;;;;;;;8.70;1.98;;;10.40;28.80;;;;;;5400422;26;20004;-78
2024/04/15 04:10:14;;;;;;;4.65;1.92;;;10.40;30.00;;;;;;5410677;26;20801;-78
2024/04/15 04:12:40;;;;;;;6.55;1.85;;;10.40;20.90;;;;;;5408607;26;20014;-78
2024/04/15 04:15:05;;;;;;;5.60;1.65;;;10.50;5.70;;;;;;5410977;26;20197;-78
2024/04/15 04:17:31;;;;;;;5.15;1.83;;;10.40;1.00;;;;;;5392199;26;19996;-77
2024/04/15 04:19:57;;;;;;;6.97;1.75;;;10.50;1.00;;;;;;5407294;26;19996;-78
2024/04/15 04:22:22;;;;;;;5.43;1.65;;;10.40;1.00;;;;;;5408710;26;20511;-77
2024/04/15 04:24:48;;;;;;;5.38;2.08;;;10.40;1.00;;;;;;5396965;26;20000;-78
2024/04/15 04:27:14;;;;;;;6.97;1.80;;;10.40;1.00;;;;;;5411850;26;20492;-78
2024/04/15 04:29:39;;;;;;;6.13;1.65;;;10.40;1.00;;;;;;5411771;26;19996;-78
2024/04/15 04:32:05;;;;;;;5.47;1.50;;;10.40;1.00;;;;;;5411317;26;20006;-78
2024/04/15 04:34:34;;;;;;;6.72;1.92;;;10.40;1.00;;;;;;5410671;26;20073;-77
2024/04/15 04:37:00;;;;;;;5.85;1.92;;;10.30;1.00;;;;;;5411000;26;20419;-77
2024/04/15 04:39:26;;;;;;;3.97;1.73;;;10.40;1.00;;;;;;5398008;26;19996;-78
2024/04/15 04:41:52;;;;;;;2.83;1.20;;;10.30;1.00;;;;;;5384013;26;20073;-78
2024/04/15 04:44:17;;;;;;;3.10;0.95;;;10.40;99.90;;;;;;5406681;26;20038;-79
2024/04/15 04:46:43;;;;;;;2.15;0.95;;;10.40;99.90;;;;;;5403559;26;20004;-79
2024/04/15 04:49:10;;;;;;;1.83;1.15;;;10.30;99.90;;;;;;5382582;26;20000;-79
2024/04/15 04:51:36;;;;;;;8.43;1.10;;;10.20;99.90;;;;;;5407787;26;20060;-78
2024/04/15 04:54:02;;;;;;;4.45;1.23;;;10.20;99.90;;;;;;5400380;26;20000;-79
2024/04/15 04:56:27;;;;;;;3.67;0.90;;;10.20;99.90;;;;;;5412219;26;19995;-79
2024/04/15 04:58:53;;;;;;;3.70;1.08;;;10.20;99.90;;;;;;5412058;26;20709;-79
2024/04/15 05:01:19;;;;;;;3.90;1.38;;;10.20;99.90;;;;;;5411169;26;20000;-78
2024/04/15 05:03:46;;;;;;;1.42;1.02;;;10.00;99.90;;;;;;5411194;26;19999;-79
2024/04/15 05:06:13;;;;;;;2.25;1.00;;;9.80;1.00;;;;;;5401782;26;20010;-79
2024/04/15 05:08:40;;;;;;;3.78;1.40;;;9.80;99.90;;;;;;5380188;26;20041;-80
2024/04/15 05:11:06;;;;;;;2.55;0.93;;;9.90;99.90;;;;;;5403678;26;20472;-81
2024/04/15 05:13:32;;;;;;;2.58;1.00;;;10.00;99.90;;;;;;5402928;26;20022;-81
2024/04/15 05:16:05;;;;;;;5.68;1.10;;;10.00;99.90;;;;;;5402248;26;20004;-82
2024/04/15 05:18:31;;;;;;;5.63;1.40;;;10.00;99.90;;;;;;5370365;26;20003;-79
2024/04/15 05:20:59;;;;;;;1.23;1.00;;;9.70;99.90;;;;;;5401241;26;19995;-82
2024/04/15 05:23:25;;;;;;;2.88;1.15;;;9.60;99.90;;;;;;5410730;26;20011;-77
2024/04/15 05:25:51;;;;;;;2.90;1.20;;;9.60;1.00;;;;;;5409551;26;19999;-77
2024/04/15 05:28:16;;;;;;;4.47;1.10;;;9.70;99.90;;;;;;5397185;26;20327;-81
2024/04/15 05:30:42;;;;;;;3.20;1.50;;;9.80;99.90;;;;;;5411883;26;20080;-79
2024/04/15 05:33:08;;;;;;;3.90;1.05;;;9.80;99.90;;;;;;5410646;26;20004;-79
2024/04/15 05:35:33;;;;;;;9.18;1.50;;;9.80;99.90;;;;;;5408499;26;19995;-79
2024/04/15 05:37:59;;;;;;;3.85;0.85;;;10.00;99.90;;;;;;5392476;26;20056;-89
2024/04/15 05:40:24;;;;;;;4.10;0.85;;;10.00;99.90;;;;;;5384916;26;20430;-83
2024/04/15 05:42:50;;;;;;;6.80;1.05;;;9.90;99.90;;;;;;5386672;26;20003;-84
2024/04/15 05:45:16;;;;;;;1.90;1.00;;;9.80;99.90;;;;;;5404736;26;20050;-89
2024/04/15 05:47:41;;;;;;;3.45;1.10;;;9.70;99.90;;;;;;5407715;26;20352;-87
2024/04/15 05:50:07;;;;;;;3.75;1.10;;;9.70;99.90;;;;;;5382478;26;20047;-86
2024/04/15 05:52:32;;;;;;;2.40;1.33;;;9.50;99.90;;;;;;5389598;26;20002;-86
2024/04/15 05:54:58;;;;;;;3.63;0.68;;;9.50;99.90;;;;;;5416327;26;20030;-83
2024/04/15 05:57:24;;;;;;;6.15;1.02;;;9.50;99.90;;;;;;5448305;26;20160;-89
2024/04/15 05:59:49;;;;;;;7.65;1.15;;;9.60;99.90;;;;;;5451058;26;19995;-91
2024/04/15 06:02:15;;;;;;;3.60;1.10;;;9.60;99.90;;;;;;5455581;26;20006;-91
2024/04/15 06:04:40;;;;;;;7.13;1.20;;;9.70;99.90;;;;;;5453335;26;19996;-87
2024/04/15 06:07:06;;;;;;;4.35;1.02;;;9.80;99.90;;;;;;5416147;26;20007;-89
2024/04/15 06:09:33;;;;;;;6.15;0.88;;;9.90;99.90;;;;;;5405760;26;20010;-85
2024/04/15 06:11:59;;;;;;;7.55;1.08;;;10.00;99.90;;;;;;5442568;26;20005;-87
2024/04/15 06:14:25;;;;;;;1.20;0.90;;;10.00;99.90;;;;;;5447373;26;19994;-89
2024/04/15 06:16:52;;;;;;;6.30;1.52;;;10.00;99.90;;;;;;5446503;26;20505;-90
2024/04/15 06:19:18;;;;;;;4.70;0.82;;;10.10;99.90;;;;;;5447897;26;19990;-87
2024/04/15 06:21:44;;;;;;;4.07;0.90;;;10.10;99.90;;;;;;5445156;26;20018;-85
2024/04/15 06:24:09;;;;;;;2.25;1.00;;;9.80;99.90;;;;;;5445793;26;19995;-84
2024/04/15 06:26:37;;;;;;;3.63;1.00;;;10.00;99.90;;;;;;5445018;26;19998;-84
2024/04/15 06:29:03;;;;;;;7.68;1.10;;;10.10;99.90;;;;;;5444284;26;20009;-85
2024/04/15 06:31:29;;;;;;;2.28;0.80;;;10.00;99.90;;;;;;5444886;26;19999;-86
2024/04/15 06:33:55;;;;;;;6.80;1.60;;;10.20;99.90;;;;;;5412486;26;20060;-85
2024/04/15 06:36:21;;;;;;;6.47;1.10;;;10.10;99.90;;;;;;5444228;26;20003;-87
2024/04/15 06:38:47;;;;;;;4.55;0.93;;;10.30;99.90;;;;;;5415065;26;19995;-85
2024/04/15 06:41:12;;;;;;;3.03;0.93;;;10.30;99.90;;;;;;5446124;26;20003;-88
2024/04/15 06:43:38;;;;;;;5.13;0.93;;;10.50;99.90;;;;;;5397730;26;20515;-90
2024/04/15 06:46:03;;;;;;;8.32;1.08;;;10.70;99.90;;;;;;5420979;26;20453;-91
2024/04/15 06:48:29;;;;;;;1.23;0.70;;;11.00;99.90;;;;;;5406112;26;20015;-87
2024/04/15 06:50:55;;;;;;;2.53;0.82;;;11.10;99.90;;;;;;5413505;26;20588;-89
2024/04/15 06:53:21;;;;;;;6.70;0.98;;;11.30;99.90;;;;;;5381596;26;20011;-90
2024/04/15 06:55:47;;;;;;;12.68;1.25;;;11.30;99.90;;;;;;5416775;26;19995;-87
2024/04/15 06:58:12;;;;;;;7.20;1.98;;;11.50;99.90;;;;;;5415678;26;20456;-86
2024/04/15 07:00:38;;;;;;;3.47;0.88;;;11.70;99.90;;;;;;5415558;26;20072;-84
2024/04/15 07:03:04;;;;;;;3.50;0.77;;;11.70;99.90;;;;;;5414576;26;20006;-82
2024/04/15 07:05:29;;;;;;;4.13;1.00;;;11.30;99.90;;;;;;5399254;26;20004;-84
2024/04/15 07:07:55;;;;;;;5.05;0.75;;;11.10;99.90;;;;;;5375962;26;20407;-87
2024/04/15 07:10:21;;;;;;;4.60;1.20;;;11.00;99.90;;;;;;5416753;26;19995;-87
2024/04/15 07:12:46;;;;;;;6.90;1.15;;;11.20;99.90;;;;;;5386022;26;20352;-89
2024/04/15 07:15:12;;;;;;;4.30;1.20;;;11.30;99.90;;;;;;5407268;26;19996;-88
2024/04/15 07:17:38;;;;;;;3.22;0.73;;;11.20;99.90;;;;;;5381346;26;20015;-87
2024/04/15 07:20:07;;;;;;;4.95;0.95;;;11.20;99.90;;;;;;5388516;26;20042;-87
2024/04/15 07:22:33;;;;;;;8.02;1.25;;;11.20;99.90;;;;;;5385804;26;20022;-86
2024/04/15 07:25:02;;;;;;;3.63;0.93;;;11.10;99.90;;;;;;5415828;26;20039;-85
2024/04/15 07:27:32;;;;;;;4.20;1.17;;;11.00;99.90;;;;;;5415964;26;19996;-83
2024/04/15 07:29:58;;;;;;;1.40;0.88;;;10.90;99.90;;;;;;5415545;26;20111;-86
2024/04/15 07:32:23;;;;;;;3.92;1.00;;;10.90;99.90;;;;;;5413143;26;20026;-87
2024/04/15 07:34:49;;;;;;;16.02;3.08;;;10.90;99.90;;;;;;5415832;26;19995;-87
2024/04/15 07:37:15;;;;;;;6.78;0.95;;;10.90;99.90;;;;;;5383736;26;20004;-84
2024/04/15 07:39:41;;;;;;;3.88;1.08;;;10.90;99.90;;;;;;5398781;26;20072;-85
2024/04/15 07:42:07;;;;;;;8.77;1.20;;;10.80;99.90;;;;;;5393420;26;20000;-89
2024/04/15 07:44:33;;;;;;;5.45;0.88;;;11.00;99.90;;;;;;5391817;26;19995;-83
2024/04/15 07:46:58;;;;;;;6.25;2.00;;;11.20;99.90;;;;;;5382059;26;20454;-83
2024/04/15 07:49:24;;;;;;;5.20;1.20;;;11.10;99.90;;;;;;5408929;26;20005;-90
2024/04/15 07:51:50;;;;;;;4.65;0.80;;;11.50;99.90;;;;;;5424264;26;20014;-86
2024/04/15 07:54:15;;;;;;;13.10;1.30;;;11.60;99.90;;;;;;5426178;26;19999;-88
2024/04/15 07:56:41;;;;;;;9.57;2.13;;;11.60;99.90;;;;;;5405351;26;20003;-85
2024/04/15 07:59:06;;;;;;;9.82;1.77;;;11.50;99.90;;;;;;5442583;26;20002;-83
2024/04/15 08:01:32;;;;;;;8.32;1.23;;;11.30;99.90;;;;;;5412858;26;20570;-81
2024/04/15 08:03:58;;;;;;;5.28;0.90;;;11.00;99.90;;;;;;5443285;26;19994;-85
2024/04/15 08:06:23;;;;;;;3.38;1.08;;;11.30;99.90;;;;;;5428649;26;20040;-85
2024/04/15 08:08:50;;;;;;;2.63;1.10;;;11.60;99.90;;;;;;5431025;26;20337;-86
2024/04/15 08:11:16;;;;;;;9.18;1.15;;;11.70;99.90;;;;;;5447643;26;20014;-86
2024/04/15 08:13:44;;;;;;;4.22;1.10;;;12.00;99.90;;;;;;5437454;26;20047;-84
2024/04/15 08:16:10;;;;;;;5.35;1.05;;;12.00;99.90;;;;;;5412328;26;20340;-85
2024/04/15 08:18:36;;;;;;;5.43;1.13;;;12.00;99.90;;;;;;5416878;26;19992;-82
2024/04/15 08:21:01;;;;;;;6.75;0.77;;;12.10;99.90;;;;;;5444242;26;20011;-86
2024/04/15 08:23:27;;;;;;;6.97;1.10;;;11.90;99.90;;;;;;5421173;26;20003;-85
2024/04/15 08:25:56;;;;;;;13.57;1.58;;;11.80;99.90;;;;;;5442434;26;20009;-88
2024/04/15 08:28:24;;;;;;;5.10;0.70;;;11.90;99.90;;;;;;5440320;26;20690;-89
2024/04/15 08:30:50;;;;;;;4.78;1.17;;;11.80;99.90;;;;;;5422646;26;20066;-90
2024/04/15 08:33:16;;;;;;;9.80;1.10;;;12.00;99.90;;;;;;5415037;26;20042;-85
2024/04/15 08:35:41;;;;;;;6.40;1.02;;;12.20;99.90;;;;;;5416232;26;20007;-83
2024/04/15 08:38:07;;;;;;;6.35;0.88;;;12.30;99.90;;;;;;5432340;26;20009;-86
2024/04/15 08:40:33;;;;;;;5.45;0.80;;;12.50;99.90;;;;;;5429627;26;20274;-84
2024/04/15 08:43:03;;;;;;;8.60;1.25;;;12.60;99.90;;;;;;5388659;26;20462;-84
2024/04/15 08:45:31;;;;;;;6.35;0.90;;;13.00;99.90;;;;;;5389406;26;19994;-86
2024/04/15 08:47:58;;;;;;;7.75;1.13;;;12.90;99.90;;;;;;5425777;26;20003;-86
2024/04/15 08:50:26;;;;;;;7.72;1.67;;;12.80;99.90;;;;;;5424126;26;20836;-83
2024/04/15 08:52:54;;;;;;;3.47;0.70;;;12.90;99.90;;;;;;5413543;26;20007;-82
2024/04/15 08:55:21;;;;;;;10.23;1.08;;;12.90;99.90;;;;;;5412774;26;20004;-86
2024/04/15 08:57:47;;;;;;;10.20;1.27;;;12.80;91.20;;;;;;5414254;26;20011;-86
2024/04/15 09:00:20;;;;;;;2.25;0.73;;;12.80;41.00;;;;;;5412997;26;20000;-85
2024/04/15 09:02:48;;;;;;;5.88;0.90;;;13.10;84.20;;;;;;5394162;26;20335;-85
2024/04/15 09:05:14;;;;;;;3.55;0.80;;;13.20;99.90;;;;;;5413531;26;20013;-84
2024/04/15 09:07:40;;;;;;;7.78;1.30;;;13.40;99.90;;;;;;5414615;26;19995;-84
2024/04/15 09:10:07;;;;;;;2.63;1.00;;;13.20;95.50;;;;;;5405505;26;20371;-86
2024/04/15 09:12:41;;;;;;;8.30;1.58;;;13.00;79.90;;;;;;5376982;26;20026;-83
2024/04/15 09:15:12;;;;;;;3.50;0.90;;;13.40;96.90;;;;;;5412200;26;20448;-84
2024/04/15 09:17:38;;;;;;;10.75;0.90;;;13.60;1.00;;;;;;5409752;26;20004;-85
2024/04/15 09:20:05;;;;;;;8.95;1.17;;;13.50;57.50;;;;;;5409642;26;20514;-85
2024/04/15 09:22:32;;;;;;;3.63;1.35;;;13.20;1.00;;;;;;5414984;26;20000;-84
2024/04/15 09:24:58;;;;;;;6.00;0.77;;;13.10;1.00;;;;;;5414526;26;20368;-85
2024/04/15 09:27:26;;;;;;;3.08;0.60;;;13.50;94.60;;;;;;5412365;26;20007;-86
2024/04/15 09:29:52;;;;;;;6.65;0.85;;;13.00;1.00;;;;;;5382831;26;19999;-85
2024/04/15 09:32:19;;;;;;;12.00;0.80;;;13.50;1.00;;;;;;5415190;26;20464;-82
2024/04/15 09:34:44;;;;;;;5.65;0.90;;;13.20;99.90;;;;;;5414671;26;20004;-84
2024/04/15 09:37:12;;;;;;;7.13;0.70;;;13.30;1.00;;;;;;5414944;26;20530;-85
2024/04/15 09:39:38;;;;;;;8.85;1.50;;;13.50;1.00;;;;;;5380468;26;19992;-84
2024/04/15 09:42:05;;;;;;;7.10;1.08;;;13.70;9.70;;;;;;5392482;26;20504;-81
2024/04/15 09:44:32;;;;;;;13.05;1.00;;;13.80;1.00;;;;;;5412858;26;20011;-84
2024/04/15 09:47:02;;;;;;;11.57;1.55;;;12.90;1.00;;;;;;5413469;26;19991;-85
2024/04/15 09:49:30;;;;;;;6.15;1.13;;;13.40;48.00;;;;;;5413040;26;20375;-84
2024/04/15 09:52:04;;;;;;;12.50;1.20;;;13.90;1.00;;;;;;5391673;26;20013;-84
2024/04/15 09:54:32;;;;;;;4.32;1.00;;;14.00;1.00;;;;;;5448819;26;20010;-88
2024/04/15 09:57:10;;;;;;;3.25;0.85;;;14.00;1.00;;;;;;5442350;26;20061;-86
2024/04/15 09:59:38;;;;;;;10.13;0.90;;;13.70;1.00;;;;;;5443376;26;20009;-82
2024/04/15 10:02:12;;;;;;;3.63;0.80;;;14.40;1.00;;;;;;5448296;26;20076;-85
2024/04/15 10:04:43;;;;;;;5.05;2.03;;;14.40;1.00;;;;;;5414094;26;19995;-83
2024/04/15 10:07:11;;;;;;;8.80;0.80;;;14.20;1.00;;;;;;5428303;26;20101;-85
2024/04/15 10:09:37;;;;;;;8.45;1.00;;;14.30;1.00;;;;;;5449484;26;19999;-86
2024/04/15 10:12:03;;;;;;;5.05;0.73;;;13.80;1.00;;;;;;5449389;26;20014;-88
2024/04/15 10:14:30;;;;;;;6.50;0.82;;;14.30;1.00;;;;;;5438402;26;20027;-85
2024/04/15 10:16:55;;;;;;;2.92;0.65;;;13.20;1.00;;;;;;5446853;26;20467;-82
2024/04/15 10:19:27;;;;;;;6.18;0.60;;;14.10;1.00;;;;;;5447804;26;19999;-86
2024/04/15 10:21:54;;;;;;;8.43;0.88;;;14.70;1.00;;;;;;5416709;26;20055;-83
2024/04/15 10:24:22;;;;;;;3.15;0.88;;;15.00;99.90;;;;;;5417490;26;20006;-85
2024/04/15 10:26:48;;;;;;;3.92;0.90;;;15.20;99.90;;;;;;5447707;26;20049;-82
2024/04/15 10:29:19;;;;;;;5.40;1.80;;;15.10;99.90;;;;;;5447673;26;20006;-81
2024/04/15 10:31:51;;;;;;;4.60;0.85;;;15.00;99.90;;;;;;5430889;26;20700;-82
2024/04/15 10:34:19;;;;;;;7.90;1.00;;;15.00;99.90;;;;;;5441878;26;20003;-87
2024/04/15 10:36:51;;;;;;;8.13;0.77;;;14.10;99.90;;;;;;5420435;26;19999;-83
2024/04/15 10:39:18;;;;;;;1.95;0.60;;;14.60;99.90;;;;;;5447673;26;20014;-85
2024/04/15 10:41:44;;;;;;;4.65;0.65;;;13.80;99.90;;;;;;5394803;26;20695;-84
2024/04/15 10:44:10;;;;;;;6.80;0.80;;;14.80;99.90;;;;;;5439760;26;20006;-83
2024/04/15 10:46:39;;;;;;;7.35;0.95;;;15.60;99.90;;;;;;5446838;26;19990;-87
2024/04/15 10:49:06;;;;;;;10.98;0.77;;;15.30;41.00;;;;;;5446386;26;20048;-81
2024/04/15 10:51:32;;;;;;;2.88;0.60;;;15.30;63.50;;;;;;5445226;26;20009;-85
2024/04/15 10:53:58;;;;;;;5.18;0.75;;;15.20;99.90;;;;;;5411238;26;20059;-85
2024/04/15 10:56:23;;;;;;;7.78;0.68;;;15.30;99.90;;;;;;5404864;26;20003;-80
2024/04/15 10:58:49;;;;;;;4.70;0.80;;;15.30;46.80;;;;;;5410574;26;20000;-81
2024/04/15 11:01:15;;;;;;;3.08;0.65;;;15.00;99.40;;;;;;5413781;26;19999;-84
2024/04/15 11:03:46;;;;;;;6.70;0.80;;;14.80;99.70;;;;;;5413707;26;20081;-80
2024/04/15 11:06:13;;;;;;;6.60;0.82;;;15.10;96.00;;;;;;5410071;26;20032;-80
2024/04/15 11:08:39;;;;;;;9.98;0.70;;;15.30;99.90;;;;;;5379832;26;20010;-80
2024/04/15 11:11:07;;;;;;;4.90;0.70;;;15.50;93.70;;;;;;5410084;26;19999;-83
2024/04/15 11:13:33;;;;;;;5.32;0.80;;;15.20;71.20;;;;;;5389261;26;20006;-87
2024/04/15 11:15:59;;;;;;;8.20;0.82;;;15.40;99.90;;;;;;5409942;26;19992;-84
2024/04/15 11:18:25;;;;;;;8.82;0.82;;;15.30;1.00;;;;;;5409194;26;19996;-81
2024/04/15 11:21:02;;;;;;;5.85;0.88;;;14.80;40.90;;;;;;5409759;26;20031;-90
2024/04/15 11:23:29;;;;;;;7.70;1.52;;;15.20;99.90;;;;;;5410298;26;20019;-81
2024/04/15 11:25:58;;;;;;;5.90;1.02;;;15.60;39.30;;;;;;5410075;26;19999;-83
2024/04/15 11:28:25;;;;;;;13.25;1.48;;;15.70;99.90;;;;;;5409966;26;19996;-81
2024/04/15 11:30:51;;;;;;;14.23;1.42;;;14.90;48.40;;;;;;5408604;26;19999;-85
2024/04/15 11:33:19;;;;;;;4.85;0.73;;;15.00;13.00;;;;;;5410774;26;20073;-84
2024/04/15 11:35:54;;;;;;;4.43;1.17;;;15.40;61.60;;;;;;5413095;26;20018;-82
2024/04/15 11:38:21;;;;;;;7.25;1.30;;;15.10;36.70;;;;;;5414620;26;20077;-81
2024/04/15 11:40:48;;;;;;;8.70;0.75;;;15.00;99.90;;;;;;5410611;26;20082;-80
2024/04/15 11:43:14;;;;;;;3.90;0.75;;;14.80;99.90;;;;;;5411009;26;19999;-85
2024/04/15 11:45:53;;;;;;;9.55;1.50;;;14.90;99.90;;;;;;5413232;26;20413;-82
2024/04/15 11:48:20;;;;;;;11.70;1.40;;;14.80;99.90;;;;;;5391081;26;20014;-82
2024/04/15 11:50:49;;;;;;;4.30;1.23;;;14.50;99.90;;;;;;5413073;26;20068;-81
2024/04/15 11:53:23;;;;;;;4.50;1.17;;;15.00;99.90;;;;;;5402403;26;20011;-84
2024/04/15 11:55:53;;;;;;;8.13;1.37;;;14.00;99.90;;;;;;5402317;26;20014;-81
2024/04/15 11:58:21;;;;;;;4.40;1.00;;;14.30;99.90;;;;;;5413218;26;20278;-84
2024/04/15 12:00:46;;;;;;;7.38;1.00;;;15.10;68.60;;;;;;5411647;26;19996;-81
2024/04/15 12:03:12;;;;;;;10.98;0.93;;;14.70;52.00;;;;;;5412081;26;20329;-82
2024/04/15 12:05:39;;;;;;;4.22;1.73;;;14.00;37.70;;;;;;5412782;26;20010;-81
2024/04/15 12:08:06;;;;;;;10.95;1.23;;;13.70;99.90;;;;;;5413257;26;19995;-83
2024/04/15 12:10:34;;;;;;;12.95;1.48;;;13.80;95.40;;;;;;5413312;26;20010;-84
2024/04/15 12:13:00;;;;;;;6.03;1.02;;;13.90;99.90;;;;;;5412973;26;19991;-81
2024/04/15 12:15:25;;;;;;;11.27;1.42;;;14.30;38.00;;;;;;5413258;26;20011;-81
2024/04/15 12:17:51;;;;;;;10.18;1.15;;;13.90;99.90;;;;;;5409038;26;20038;-80
2024/04/15 12:20:18;;;;;;;20.40;2.70;;;13.70;62.50;;;;;;5412905;26;20403;-84
2024/04/15 12:22:44;;;;;;;8.25;1.15;;;14.20;91.00;;;;;;5392974;26;20416;-86
2024/04/15 12:25:10;;;;;;;11.20;1.00;;;14.50;24.70;;;;;;5407355;26;20010;-83
2024/04/15 12:27:43;;;;;;;10.00;1.02;;;14.50;1.00;;;;;;5381326;26;19999;-83
2024/04/15 12:30:10;;;;;;;14.02;1.30;;;14.50;1.00;;;;;;5412676;26;20007;-81
2024/04/15 12:32:38;;;;;;;7.57;1.08;;;14.50;42.00;;;;;;5409145;26;20019;-79
2024/04/15 12:35:04;;;;;;;7.45;1.20;;;14.60;1.00;;;;;;5402066;26;20731;-81
2024/04/15 12:37:30;;;;;;;5.95;0.80;;;14.50;4.40;;;;;;5390024;26;20007;-83
2024/04/15 12:39:55;;;;;;;11.48;1.15;;;14.70;1.00;;;;;;5412681;26;20004;-83
2024/04/15 12:42:21;;;;;;;3.30;0.70;;;15.20;1.00;;;;;;5386479;26;20624;-81
2024/04/15 12:44:47;;;;;;;11.23;1.00;;;15.00;99.90;;;;;;5387857;26;20015;-80
2024/04/15 12:47:12;;;;;;;9.02;1.02;;;15.20;1.00;;;;;;5411895;26;20364;-83